Terminal Aerodrome Forecast
Issued by NWS

Home | Current Version | Previous Version | Graphics & Text | Print | Product List | Glossary On
Versions: 1 2 3 4 5 6 7 8 9 10 11 12 13 14 15 16 17 18 19 20 21 22 23 24
000
FTUS43 KGRB 182300
TAFCWA
TAF
KCWA 182331Z 1900/1924 13008KT P6SM VCSH SCT010 OVC022
     FM190500 VRB03KT 3SM BR VCTS BKN014CB OVC060
      TEMPO 1906/1910 1SM TSRA BR OVC011CB
     FM191300 24005KT 5SM BR SCT025 BKN040 PROB30 1913/1918 3SM
      -SHRA OVC025
     FM191800 29006KT 4SM BR VCSH BKN040
      TEMPO 1920/1924 1SM +TSRA BR OVC022CB
      AMD LTD TO CLD VIS AND WIND 1903/1911=

USA.gov is the U.S. government's official web portal to all federal, state and local government web resources and services.